sensor_id;sensor_type;location;lat;lon;timestamp;temperature;humidity
13808;DHT22;40769;51.512;5.494;2022-09-09T00:07:19;17.10;99.90
13808;DHT22;40769;51.512;5.494;2022-09-09T00:10:01;17.10;99.90
13808;DHT22;40769;51.512;5.494;2022-09-09T00:15:00;17.10;99.90
13808;DHT22;40769;51.512;5.494;2022-09-09T00:20:25;17.00;99.90
13808;DHT22;40769;51.512;5.494;2022-09-09T00:31:35;17.00;99.90
13808;DHT22;40769;51.512;5.494;2022-09-09T00:34:20;17.00;99.90
13808;DHT22;40769;51.512;5.494;2022-09-09T00:36:48;17.00;99.90
13808;DHT22;40769;51.512;5.494;2022-09-09T00:39:36;17.00;99.90
13808;DHT22;40769;51.512;5.494;2022-09-09T00:44:56;17.00;99.90
13808;DHT22;40769;51.512;5.494;2022-09-09T00:50:13;17.00;99.90
13808;DHT22;40769;51.512;5.494;2022-09-09T00:57:52;17.00;99.90
13808;DHT22;40769;51.512;5.494;2022-09-09T01:00:27;17.00;99.90
13808;DHT22;40769;51.512;5.494;2022-09-09T01:06:01;17.00;99.90
13808;DHT22;40769;51.512;5.494;2022-09-09T01:11:23;17.00;99.90
13808;DHT22;40769;51.512;5.494;2022-09-09T01:14:01;17.00;99.90
13808;DHT22;40769;51.512;5.494;2022-09-09T01:16:30;17.00;99.90
13808;DHT22;40769;51.512;5.494;2022-09-09T01:18:58;17.00;99.90
13808;DHT22;40769;51.512;5.494;2022-09-09T01:21:44;16.90;99.90
13808;DHT22;40769;51.512;5.494;2022-09-09T01:24:27;17.00;99.90
13808;DHT22;40769;51.512;5.494;2022-09-09T01:26:58;17.00;99.90
13808;DHT22;40769;51.512;5.494;2022-09-09T01:29:25;17.00;99.90
13808;DHT22;40769;51.512;5.494;2022-09-09T01:31:59;17.00;99.90
13808;DHT22;40769;51.512;5.494;2022-09-09T01:34:29;17.00;99.90
13808;DHT22;40769;51.512;5.494;2022-09-09T01:39:26;17.00;99.90
13808;DHT22;40769;51.512;5.494;2022-09-09T01:41:53;17.00;99.90
13808;DHT22;40769;51.512;5.494;2022-09-09T01:44:20;17.00;99.90
13808;DHT22;40769;51.512;5.494;2022-09-09T01:46:47;17.00;99.90
13808;DHT22;40769;51.512;5.494;2022-09-09T01:49:13;17.00;99.90
13808;DHT22;40769;51.512;5.494;2022-09-09T01:51:39;17.00;99.90
13808;DHT22;40769;51.512;5.494;2022-09-09T01:54:06;17.00;99.90
13808;DHT22;40769;51.512;5.494;2022-09-09T02:02:30;17.00;99.90
13808;DHT22;40769;51.512;5.494;2022-09-09T02:07:51;17.00;99.90
13808;DHT22;40769;51.512;5.494;2022-09-09T02:10:26;17.00;99.90
13808;DHT22;40769;51.512;5.494;2022-09-09T02:13:03;17.00;99.90
13808;DHT22;40769;51.512;5.494;2022-09-09T02:18:08;17.10;99.90
13808;DHT22;40769;51.512;5.494;2022-09-09T02:20:37;17.10;99.90
13808;DHT22;40769;51.512;5.494;2022-09-09T02:23:04;17.00;99.90
13808;DHT22;40769;51.512;5.494;2022-09-09T02:25:30;17.00;99.90
13808;DHT22;40769;51.512;5.494;2022-09-09T02:27:58;17.20;99.90
13808;DHT22;40769;51.512;5.494;2022-09-09T02:30:24;17.00;99.90
13808;DHT22;40769;51.512;5.494;2022-09-09T02:32:52;17.10;99.90
13808;DHT22;40769;51.512;5.494;2022-09-09T02:35:23;17.00;99.90
13808;DHT22;40769;51.512;5.494;2022-09-09T02:37:52;17.10;99.90
13808;DHT22;40769;51.512;5.494;2022-09-09T02:40:20;17.10;99.90
13808;DHT22;40769;51.512;5.494;2022-09-09T02:42:48;17.10;99.90
13808;DHT22;40769;51.512;5.494;2022-09-09T02:45:17;17.00;99.90
13808;DHT22;40769;51.512;5.494;2022-09-09T02:47:47;17.00;99.90
13808;DHT22;40769;51.512;5.494;2022-09-09T02:50:45;17.00;99.90
13808;DHT22;40769;51.512;5.494;2022-09-09T02:53:20;17.00;99.90
13808;DHT22;40769;51.512;5.494;2022-09-09T02:56:23;17.00;99.90
13808;DHT22;40769;51.512;5.494;2022-09-09T02:58:42;17.00;99.90
13808;DHT22;40769;51.512;5.494;2022-09-09T03:01:08;17.00;99.90
13808;DHT22;40769;51.512;5.494;2022-09-09T03:03:34;17.00;99.90
13808;DHT22;40769;51.512;5.494;2022-09-09T03:06:00;16.90;99.90
13808;DHT22;40769;51.512;5.494;2022-09-09T03:08:26;16.90;99.90
13808;DHT22;40769;51.512;5.494;2022-09-09T03:10:54;17.00;99.90
13808;DHT22;40769;51.512;5.494;2022-09-09T03:13:20;17.10;99.90
13808;DHT22;40769;51.512;5.494;2022-09-09T03:15:47;17.00;99.90
13808;DHT22;40769;51.512;5.494;2022-09-09T03:18:13;17.00;99.90
13808;DHT22;40769;51.512;5.494;2022-09-09T03:20:39;17.00;99.90
13808;DHT22;40769;51.512;5.494;2022-09-09T03:23:07;17.00;99.90
13808;DHT22;40769;51.512;5.494;2022-09-09T03:25:33;17.00;99.90
13808;DHT22;40769;51.512;5.494;2022-09-09T03:27:59;17.00;99.90
13808;DHT22;40769;51.512;5.494;2022-09-09T03:30:26;17.20;99.90
13808;DHT22;40769;51.512;5.494;2022-09-09T03:32:52;17.10;99.90
13808;DHT22;40769;51.512;5.494;2022-09-09T03:35:18;17.10;99.90
13808;DHT22;40769;51.512;5.494;2022-09-09T03:37:44;17.10;99.90
13808;DHT22;40769;51.512;5.494;2022-09-09T03:40:10;17.20;99.90
13808;DHT22;40769;51.512;5.494;2022-09-09T03:42:36;17.20;99.90
13808;DHT22;40769;51.512;5.494;2022-09-09T03:45:03;17.30;99.90
13808;DHT22;40769;51.512;5.494;2022-09-09T03:47:29;17.30;99.90
13808;DHT22;40769;51.512;5.494;2022-09-09T03:49:55;17.40;99.90
13808;DHT22;40769;51.512;5.494;2022-09-09T03:52:20;17.30;99.90
13808;DHT22;40769;51.512;5.494;2022-09-09T03:54:50;17.30;99.90
13808;DHT22;40769;51.512;5.494;2022-09-09T03:57:16;17.30;99.90
13808;DHT22;40769;51.512;5.494;2022-09-09T03:59:43;17.30;99.90
13808;DHT22;40769;51.512;5.494;2022-09-09T04:02:08;17.30;99.90
13808;DHT22;40769;51.512;5.494;2022-09-09T04:04:34;17.30;99.90
13808;DHT22;40769;51.512;5.494;2022-09-09T04:07:00;17.30;99.90
13808;DHT22;40769;51.512;5.494;2022-09-09T04:09:25;17.30;99.90
13808;DHT22;40769;51.512;5.494;2022-09-09T04:11:51;17.30;99.90
13808;DHT22;40769;51.512;5.494;2022-09-09T04:14:18;17.30;99.90
13808;DHT22;40769;51.512;5.494;2022-09-09T04:16:44;17.30;99.90
13808;DHT22;40769;51.512;5.494;2022-09-09T04:19:12;17.30;99.90
13808;DHT22;40769;51.512;5.494;2022-09-09T04:21:39;17.30;99.90
13808;DHT22;40769;51.512;5.494;2022-09-09T04:24:06;17.30;99.90
13808;DHT22;40769;51.512;5.494;2022-09-09T04:26:32;17.20;99.90
13808;DHT22;40769;51.512;5.494;2022-09-09T04:28:58;17.20;99.90
13808;DHT22;40769;51.512;5.494;2022-09-09T04:31:24;17.20;99.90
13808;DHT22;40769;51.512;5.494;2022-09-09T04:33:50;17.20;99.90
13808;DHT22;40769;51.512;5.494;2022-09-09T04:36:16;17.20;99.90
13808;DHT22;40769;51.512;5.494;2022-09-09T04:38:43;17.20;99.90
13808;DHT22;40769;51.512;5.494;2022-09-09T04:41:10;17.40;99.90
13808;DHT22;40769;51.512;5.494;2022-09-09T04:43:36;17.20;99.90
13808;DHT22;40769;51.512;5.494;2022-09-09T04:46:03;17.30;99.90
13808;DHT22;40769;51.512;5.494;2022-09-09T04:48:28;17.30;99.90
13808;DHT22;40769;51.512;5.494;2022-09-09T04:51:05;17.30;99.90
13808;DHT22;40769;51.512;5.494;2022-09-09T04:53:31;17.30;99.90
13808;DHT22;40769;51.512;5.494;2022-09-09T04:56:09;17.30;99.90
13808;DHT22;40769;51.512;5.494;2022-09-09T04:58:36;17.30;99.90
13808;DHT22;40769;51.512;5.494;2022-09-09T05:01:13;17.30;99.90
13808;DHT22;40769;51.512;5.494;2022-09-09T05:03:39;17.30;99.90
13808;DHT22;40769;51.512;5.494;2022-09-09T05:06:07;17.40;99.90
13808;DHT22;40769;51.512;5.494;2022-09-09T05:08:34;17.40;99.90
13808;DHT22;40769;51.512;5.494;2022-09-09T05:11:00;17.40;99.90
13808;DHT22;40769;51.512;5.494;2022-09-09T05:13:26;17.40;99.90
13808;DHT22;40769;51.512;5.494;2022-09-09T05:15:53;17.50;99.90
13808;DHT22;40769;51.512;5.494;2022-09-09T05:18:19;17.50;99.90
13808;DHT22;40769;51.512;5.494;2022-09-09T05:20:44;17.50;99.90
13808;DHT22;40769;51.512;5.494;2022-09-09T05:23:10;17.50;99.90
13808;DHT22;40769;51.512;5.494;2022-09-09T05:25:39;17.50;99.90
13808;DHT22;40769;51.512;5.494;2022-09-09T05:28:06;17.50;99.90
13808;DHT22;40769;51.512;5.494;2022-09-09T05:30:33;17.50;99.90
13808;DHT22;40769;51.512;5.494;2022-09-09T05:32:59;17.50;99.90
13808;DHT22;40769;51.512;5.494;2022-09-09T05:35:25;17.50;99.90
13808;DHT22;40769;51.512;5.494;2022-09-09T05:37:51;17.50;99.90
13808;DHT22;40769;51.512;5.494;2022-09-09T05:40:16;17.50;99.90
13808;DHT22;40769;51.512;5.494;2022-09-09T05:42:42;17.50;99.90
13808;DHT22;40769;51.512;5.494;2022-09-09T05:45:08;17.50;99.90
13808;DHT22;40769;51.512;5.494;2022-09-09T05:47:35;17.50;99.90
13808;DHT22;40769;51.512;5.494;2022-09-09T05:50:03;17.60;99.90
13808;DHT22;40769;51.512;5.494;2022-09-09T05:52:28;17.60;99.90
13808;DHT22;40769;51.512;5.494;2022-09-09T05:54:54;17.70;99.90
13808;DHT22;40769;51.512;5.494;2022-09-09T05:57:20;17.80;99.90
13808;DHT22;40769;51.512;5.494;2022-09-09T05:59:46;17.90;99.90
13808;DHT22;40769;51.512;5.494;2022-09-09T06:02:12;18.00;99.90
13808;DHT22;40769;51.512;5.494;2022-09-09T06:04:38;18.00;99.90
13808;DHT22;40769;51.512;5.494;2022-09-09T06:07:05;18.10;99.90
13808;DHT22;40769;51.512;5.494;2022-09-09T06:09:31;18.00;99.90
13808;DHT22;40769;51.512;5.494;2022-09-09T06:11:57;18.10;99.90
13808;DHT22;40769;51.512;5.494;2022-09-09T06:14:23;18.10;99.90
13808;DHT22;40769;51.512;5.494;2022-09-09T06:16:51;18.20;99.90
13808;DHT22;40769;51.512;5.494;2022-09-09T06:19:16;18.20;99.90
13808;DHT22;40769;51.512;5.494;2022-09-09T06:21:42;18.30;99.90
13808;DHT22;40769;51.512;5.494;2022-09-09T06:24:10;18.40;99.90
13808;DHT22;40769;51.512;5.494;2022-09-09T06:26:38;18.60;99.90
13808;DHT22;40769;51.512;5.494;2022-09-09T06:29:07;18.70;99.90
13808;DHT22;40769;51.512;5.494;2022-09-09T06:31:34;18.80;99.90
13808;DHT22;40769;51.512;5.494;2022-09-09T06:34:04;19.00;99.90
13808;DHT22;40769;51.512;5.494;2022-09-09T06:36:35;19.10;99.90
13808;DHT22;40769;51.512;5.494;2022-09-09T06:39:02;19.20;99.90
13808;DHT22;40769;51.512;5.494;2022-09-09T06:41:30;19.30;99.90
13808;DHT22;40769;51.512;5.494;2022-09-09T06:43:56;19.40;99.90
13808;DHT22;40769;51.512;5.494;2022-09-09T06:46:24;19.60;99.90
13808;DHT22;40769;51.512;5.494;2022-09-09T06:48:54;19.70;99.90
13808;DHT22;40769;51.512;5.494;2022-09-09T06:51:26;19.90;99.90
13808;DHT22;40769;51.512;5.494;2022-09-09T06:53:57;19.90;99.90
13808;DHT22;40769;51.512;5.494;2022-09-09T06:56:29;20.00;99.90
13808;DHT22;40769;51.512;5.494;2022-09-09T06:58:56;20.10;99.90
13808;DHT22;40769;51.512;5.494;2022-09-09T07:01:26;20.20;99.90
13808;DHT22;40769;51.512;5.494;2022-09-09T07:03:54;20.20;99.90
13808;DHT22;40769;51.512;5.494;2022-09-09T07:06:40;20.20;99.90
13808;DHT22;40769;51.512;5.494;2022-09-09T07:09:08;20.30;99.90
13808;DHT22;40769;51.512;5.494;2022-09-09T07:11:38;20.30;99.90
13808;DHT22;40769;51.512;5.494;2022-09-09T07:14:04;20.30;99.90
13808;DHT22;40769;51.512;5.494;2022-09-09T07:16:30;20.40;99.90
13808;DHT22;40769;51.512;5.494;2022-09-09T07:18:58;20.50;99.90
13808;DHT22;40769;51.512;5.494;2022-09-09T07:21:25;20.50;99.90
13808;DHT22;40769;51.512;5.494;2022-09-09T07:23:54;20.70;99.90
13808;DHT22;40769;51.512;5.494;2022-09-09T07:26:22;20.80;99.90
13808;DHT22;40769;51.512;5.494;2022-09-09T07:28:49;20.90;99.90
13808;DHT22;40769;51.512;5.494;2022-09-09T07:31:20;21.00;99.90
13808;DHT22;40769;51.512;5.494;2022-09-09T07:33:46;21.00;99.90
13808;DHT22;40769;51.512;5.494;2022-09-09T07:36:18;21.10;99.90
13808;DHT22;40769;51.512;5.494;2022-09-09T07:38:49;21.00;99.90
13808;DHT22;40769;51.512;5.494;2022-09-09T07:41:19;21.00;99.90
13808;DHT22;40769;51.512;5.494;2022-09-09T07:43:47;21.00;99.90
13808;DHT22;40769;51.512;5.494;2022-09-09T07:46:14;21.00;99.90
13808;DHT22;40769;51.512;5.494;2022-09-09T07:48:45;20.90;99.90
13808;DHT22;40769;51.512;5.494;2022-09-09T07:51:14;20.80;99.90
13808;DHT22;40769;51.512;5.494;2022-09-09T07:53:44;20.70;99.90
13808;DHT22;40769;51.512;5.494;2022-09-09T07:56:12;20.70;99.90
13808;DHT22;40769;51.512;5.494;2022-09-09T07:58:39;20.70;99.90
13808;DHT22;40769;51.512;5.494;2022-09-09T08:01:39;20.60;99.90
13808;DHT22;40769;51.512;5.494;2022-09-09T08:04:06;20.60;99.90
13808;DHT22;40769;51.512;5.494;2022-09-09T08:06:38;20.60;99.90
13808;DHT22;40769;51.512;5.494;2022-09-09T08:09:05;20.60;99.90
13808;DHT22;40769;51.512;5.494;2022-09-09T08:11:31;20.70;99.90
13808;DHT22;40769;51.512;5.494;2022-09-09T08:13:58;20.80;99.90
13808;DHT22;40769;51.512;5.494;2022-09-09T08:16:27;20.80;99.90
13808;DHT22;40769;51.512;5.494;2022-09-09T08:18:53;20.90;99.90
13808;DHT22;40769;51.512;5.494;2022-09-09T08:21:26;20.90;99.90
13808;DHT22;40769;51.512;5.494;2022-09-09T08:23:54;20.90;99.90
13808;DHT22;40769;51.512;5.494;2022-09-09T08:26:22;21.00;99.90
13808;DHT22;40769;51.512;5.494;2022-09-09T08:28:52;21.00;99.90
13808;DHT22;40769;51.512;5.494;2022-09-09T08:31:21;21.00;99.90
13808;DHT22;40769;51.512;5.494;2022-09-09T08:33:47;21.00;99.90
13808;DHT22;40769;51.512;5.494;2022-09-09T08:36:15;21.00;99.90
13808;DHT22;40769;51.512;5.494;2022-09-09T08:38:47;21.10;99.90
13808;DHT22;40769;51.512;5.494;2022-09-09T08:41:35;21.20;99.90
13808;DHT22;40769;51.512;5.494;2022-09-09T08:44:10;21.20;99.90
13808;DHT22;40769;51.512;5.494;2022-09-09T08:49:38;21.40;99.90
13808;DHT22;40769;51.512;5.494;2022-09-09T08:52:22;21.40;99.90
13808;DHT22;40769;51.512;5.494;2022-09-09T08:54:48;21.40;99.90
13808;DHT22;40769;51.512;5.494;2022-09-09T08:57:23;21.40;99.90
13808;DHT22;40769;51.512;5.494;2022-09-09T08:59:54;21.40;99.90
13808;DHT22;40769;51.512;5.494;2022-09-09T09:05:15;21.30;99.90
13808;DHT22;40769;51.512;5.494;2022-09-09T09:10:47;21.30;99.90
13808;DHT22;40769;51.512;5.494;2022-09-09T09:15:42;21.30;99.90
13808;DHT22;40769;51.512;5.494;2022-09-09T09:18:12;21.30;99.90
13808;DHT22;40769;51.512;5.494;2022-09-09T09:20:57;21.30;99.90
13808;DHT22;40769;51.512;5.494;2022-09-09T09:23:25;21.30;99.90
13808;DHT22;40769;51.512;5.494;2022-09-09T09:25:56;21.40;99.90
13808;DHT22;40769;51.512;5.494;2022-09-09T09:28:27;21.40;99.90
13808;DHT22;40769;51.512;5.494;2022-09-09T09:35:54;21.50;99.90
13808;DHT22;40769;51.512;5.494;2022-09-09T09:38:27;21.50;99.90
13808;DHT22;40769;51.512;5.494;2022-09-09T09:40:55;21.40;99.90
13808;DHT22;40769;51.512;5.494;2022-09-09T09:45:52;21.50;99.90
13808;DHT22;40769;51.512;5.494;2022-09-09T09:48:17;21.50;99.90
13808;DHT22;40769;51.512;5.494;2022-09-09T09:51:10;21.60;99.90
13808;DHT22;40769;51.512;5.494;2022-09-09T09:53:38;21.70;99.90
13808;DHT22;40769;51.512;5.494;2022-09-09T09:56:09;21.90;99.90
13808;DHT22;40769;51.512;5.494;2022-09-09T10:03:54;22.30;99.90
13808;DHT22;40769;51.512;5.494;2022-09-09T10:06:46;22.40;99.90
13808;DHT22;40769;51.512;5.494;2022-09-09T10:09:41;22.30;99.90
13808;DHT22;40769;51.512;5.494;2022-09-09T10:15:42;22.20;99.90
13808;DHT22;40769;51.512;5.494;2022-09-09T10:34:56;21.20;99.90
13808;DHT22;40769;51.512;5.494;2022-09-09T10:42:44;20.60;99.90
13808;DHT22;40769;51.512;5.494;2022-09-09T10:45:23;20.50;99.90
13808;DHT22;40769;51.512;5.494;2022-09-09T10:55:52;20.00;99.90
13808;DHT22;40769;51.512;5.494;2022-09-09T10:58:29;20.00;99.90
13808;DHT22;40769;51.512;5.494;2022-09-09T11:01:00;20.00;99.90
13808;DHT22;40769;51.512;5.494;2022-09-09T11:03:29;20.10;99.90
13808;DHT22;40769;51.512;5.494;2022-09-09T11:06:21;20.20;99.90
13808;DHT22;40769;51.512;5.494;2022-09-09T11:08:46;20.20;99.90
13808;DHT22;40769;51.512;5.494;2022-09-09T11:22:52;20.30;99.90
13808;DHT22;40769;51.512;5.494;2022-09-09T11:25:04;20.30;99.90
13808;DHT22;40769;51.512;5.494;2022-09-09T11:33:31;20.40;99.90
13808;DHT22;40769;51.512;5.494;2022-09-09T11:36:22;20.50;99.90
13808;DHT22;40769;51.512;5.494;2022-09-09T11:38:56;20.50;99.90
13808;DHT22;40769;51.512;5.494;2022-09-09T11:41:33;20.60;99.90
13808;DHT22;40769;51.512;5.494;2022-09-09T11:44:00;20.60;99.90
13808;DHT22;40769;51.512;5.494;2022-09-09T11:46:37;20.60;99.90
13808;DHT22;40769;51.512;5.494;2022-09-09T11:49:06;20.60;99.90
13808;DHT22;40769;51.512;5.494;2022-09-09T11:51:47;20.60;99.90
13808;DHT22;40769;51.512;5.494;2022-09-09T11:54:33;20.60;99.90
13808;DHT22;40769;51.512;5.494;2022-09-09T11:57:36;20.60;99.90
13808;DHT22;40769;51.512;5.494;2022-09-09T12:00:03;20.50;99.90
13808;DHT22;40769;51.512;5.494;2022-09-09T12:02:29;20.50;99.90
13808;DHT22;40769;51.512;5.494;2022-09-09T12:05:08;20.40;99.90
13808;DHT22;40769;51.512;5.494;2022-09-09T12:12:52;20.30;99.90
13808;DHT22;40769;51.512;5.494;2022-09-09T12:15:25;20.30;99.90
13808;DHT22;40769;51.512;5.494;2022-09-09T12:17:55;20.30;99.90
13808;DHT22;40769;51.512;5.494;2022-09-09T12:26:07;20.40;99.90
13808;DHT22;40769;51.512;5.494;2022-09-09T12:34:41;20.70;99.90
13808;DHT22;40769;51.512;5.494;2022-09-09T12:37:40;20.80;99.90
13808;DHT22;40769;51.512;5.494;2022-09-09T12:40:20;20.90;99.90
13808;DHT22;40769;51.512;5.494;2022-09-09T12:42:46;21.00;99.90
13808;DHT22;40769;51.512;5.494;2022-09-09T12:45:23;21.10;99.90
13808;DHT22;40769;51.512;5.494;2022-09-09T12:48:05;21.10;99.90
13808;DHT22;40769;51.512;5.494;2022-09-09T12:50:46;21.20;99.90
13808;DHT22;40769;51.512;5.494;2022-09-09T12:53:27;21.20;99.90
13808;DHT22;40769;51.512;5.494;2022-09-09T12:56:00;21.30;99.90
13808;DHT22;40769;51.512;5.494;2022-09-09T12:58:28;21.30;99.90
13808;DHT22;40769;51.512;5.494;2022-09-09T13:00:59;21.30;99.90
13808;DHT22;40769;51.512;5.494;2022-09-09T13:03:26;21.30;99.90
13808;DHT22;40769;51.512;5.494;2022-09-09T13:05:52;21.30;99.90
13808;DHT22;40769;51.512;5.494;2022-09-09T13:08:19;21.30;99.90
13808;DHT22;40769;51.512;5.494;2022-09-09T13:11:00;21.10;99.90
13808;DHT22;40769;51.512;5.494;2022-09-09T13:13:52;20.90;99.90
13808;DHT22;40769;51.512;5.494;2022-09-09T13:16:30;20.70;99.90
13808;DHT22;40769;51.512;5.494;2022-09-09T13:18:59;20.40;99.90
13808;DHT22;40769;51.512;5.494;2022-09-09T13:21:36;20.30;99.90
13808;DHT22;40769;51.512;5.494;2022-09-09T13:24:21;20.10;99.90
13808;DHT22;40769;51.512;5.494;2022-09-09T13:27:00;20.00;99.90
13808;DHT22;40769;51.512;5.494;2022-09-09T13:29:28;20.00;99.90
13808;DHT22;40769;51.512;5.494;2022-09-09T13:31:54;19.90;99.90
13808;DHT22;40769;51.512;5.494;2022-09-09T13:34:29;20.00;99.90
13808;DHT22;40769;51.512;5.494;2022-09-09T13:37:00;20.00;99.90
13808;DHT22;40769;51.512;5.494;2022-09-09T13:39:32;20.10;99.90
13808;DHT22;40769;51.512;5.494;2022-09-09T13:41:58;20.30;99.90
13808;DHT22;40769;51.512;5.494;2022-09-09T13:44:27;20.40;99.90
13808;DHT22;40769;51.512;5.494;2022-09-09T13:47:50;20.60;99.90
13808;DHT22;40769;51.512;5.494;2022-09-09T13:49:50;20.60;99.90
13808;DHT22;40769;51.512;5.494;2022-09-09T13:52:18;20.70;99.90
13808;DHT22;40769;51.512;5.494;2022-09-09T13:54:53;20.70;99.90
13808;DHT22;40769;51.512;5.494;2022-09-09T13:57:20;20.80;99.90
13808;DHT22;40769;51.512;5.494;2022-09-09T13:59:48;20.80;99.90
13808;DHT22;40769;51.512;5.494;2022-09-09T14:02:15;20.90;99.90
13808;DHT22;40769;51.512;5.494;2022-09-09T14:04:42;21.00;99.90
13808;DHT22;40769;51.512;5.494;2022-09-09T14:07:15;21.10;99.90
13808;DHT22;40769;51.512;5.494;2022-09-09T14:09:41;21.20;99.90
13808;DHT22;40769;51.512;5.494;2022-09-09T14:12:11;21.30;99.90
13808;DHT22;40769;51.512;5.494;2022-09-09T14:14:37;21.50;99.90
13808;DHT22;40769;51.512;5.494;2022-09-09T14:17:03;21.60;99.90
13808;DHT22;40769;51.512;5.494;2022-09-09T14:19:29;21.70;99.90
13808;DHT22;40769;51.512;5.494;2022-09-09T14:21:59;21.80;99.90
13808;DHT22;40769;51.512;5.494;2022-09-09T14:24:24;21.90;99.90
13808;DHT22;40769;51.512;5.494;2022-09-09T14:26:50;21.80;99.90
13808;DHT22;40769;51.512;5.494;2022-09-09T14:29:16;22.00;99.90
13808;DHT22;40769;51.512;5.494;2022-09-09T14:31:42;22.10;99.90
13808;DHT22;40769;51.512;5.494;2022-09-09T14:34:07;22.30;99.90
13808;DHT22;40769;51.512;5.494;2022-09-09T14:36:33;22.40;99.90
13808;DHT22;40769;51.512;5.494;2022-09-09T14:38:59;22.60;99.90
13808;DHT22;40769;51.512;5.494;2022-09-09T14:41:24;22.60;99.90
13808;DHT22;40769;51.512;5.494;2022-09-09T14:43:50;22.70;99.90
13808;DHT22;40769;51.512;5.494;2022-09-09T14:46:18;22.90;99.90
13808;DHT22;40769;51.512;5.494;2022-09-09T14:48:45;23.10;99.90
13808;DHT22;40769;51.512;5.494;2022-09-09T14:51:18;23.30;99.90
13808;DHT22;40769;51.512;5.494;2022-09-09T14:53:46;23.50;99.90
13808;DHT22;40769;51.512;5.494;2022-09-09T14:56:17;23.90;99.90
13808;DHT22;40769;51.512;5.494;2022-09-09T14:58:43;23.90;99.90
13808;DHT22;40769;51.512;5.494;2022-09-09T15:01:11;24.10;99.90
13808;DHT22;40769;51.512;5.494;2022-09-09T15:03:38;24.10;99.90
13808;DHT22;40769;51.512;5.494;2022-09-09T15:06:13;24.10;99.90
13808;DHT22;40769;51.512;5.494;2022-09-09T15:08:42;24.00;99.90
13808;DHT22;40769;51.512;5.494;2022-09-09T15:11:08;24.00;99.90
13808;DHT22;40769;51.512;5.494;2022-09-09T15:13:36;24.00;99.90
13808;DHT22;40769;51.512;5.494;2022-09-09T15:16:13;24.00;99.90
13808;DHT22;40769;51.512;5.494;2022-09-09T15:18:40;24.10;99.90
13808;DHT22;40769;51.512;5.494;2022-09-09T15:21:17;24.20;99.90
13808;DHT22;40769;51.512;5.494;2022-09-09T15:23:44;24.20;99.90
13808;DHT22;40769;51.512;5.494;2022-09-09T15:26:11;24.30;99.90
13808;DHT22;40769;51.512;5.494;2022-09-09T15:28:38;24.20;99.90
13808;DHT22;40769;51.512;5.494;2022-09-09T15:31:11;24.10;99.90
13808;DHT22;40769;51.512;5.494;2022-09-09T15:33:37;24.00;99.90
13808;DHT22;40769;51.512;5.494;2022-09-09T15:36:13;23.80;99.90
13808;DHT22;40769;51.512;5.494;2022-09-09T15:38:40;23.30;99.90
13808;DHT22;40769;51.512;5.494;2022-09-09T15:41:05;22.80;99.90
13808;DHT22;40769;51.512;5.494;2022-09-09T15:43:31;22.10;99.90
13808;DHT22;40769;51.512;5.494;2022-09-09T15:46:02;21.50;99.90
13808;DHT22;40769;51.512;5.494;2022-09-09T15:48:32;20.70;99.90
13808;DHT22;40769;51.512;5.494;2022-09-09T15:51:02;20.70;99.90
13808;DHT22;40769;51.512;5.494;2022-09-09T15:53:29;20.00;99.90
13808;DHT22;40769;51.512;5.494;2022-09-09T15:55:55;19.70;99.90
13808;DHT22;40769;51.512;5.494;2022-09-09T15:58:21;19.50;99.90
13808;DHT22;40769;51.512;5.494;2022-09-09T16:00:46;19.30;99.90
13808;DHT22;40769;51.512;5.494;2022-09-09T16:03:13;19.10;99.90
13808;DHT22;40769;51.512;5.494;2022-09-09T16:05:38;19.00;99.90
13808;DHT22;40769;51.512;5.494;2022-09-09T16:08:04;18.80;99.90
13808;DHT22;40769;51.512;5.494;2022-09-09T16:10:29;18.70;99.90
13808;DHT22;40769;51.512;5.494;2022-09-09T16:12:56;18.70;99.90
13808;DHT22;40769;51.512;5.494;2022-09-09T16:15:21;18.60;99.90
13808;DHT22;40769;51.512;5.494;2022-09-09T16:17:48;18.60;99.90
13808;DHT22;40769;51.512;5.494;2022-09-09T16:20:14;18.60;99.90
13808;DHT22;40769;51.512;5.494;2022-09-09T16:22:40;18.60;99.90
13808;DHT22;40769;51.512;5.494;2022-09-09T16:25:06;18.60;99.90
13808;DHT22;40769;51.512;5.494;2022-09-09T16:27:31;18.60;99.90
13808;DHT22;40769;51.512;5.494;2022-09-09T16:29:57;18.60;99.90
13808;DHT22;40769;51.512;5.494;2022-09-09T16:32:23;18.60;99.90
13808;DHT22;40769;51.512;5.494;2022-09-09T16:34:48;18.70;99.90
13808;DHT22;40769;51.512;5.494;2022-09-09T16:37:14;18.50;99.90
13808;DHT22;40769;51.512;5.494;2022-09-09T16:39:39;18.40;99.90
13808;DHT22;40769;51.512;5.494;2022-09-09T16:42:05;18.40;99.90
13808;DHT22;40769;51.512;5.494;2022-09-09T16:44:31;18.30;99.90
13808;DHT22;40769;51.512;5.494;2022-09-09T16:46:56;18.20;99.90
13808;DHT22;40769;51.512;5.494;2022-09-09T16:49:22;18.20;99.90
13808;DHT22;40769;51.512;5.494;2022-09-09T16:51:49;18.10;99.90
13808;DHT22;40769;51.512;5.494;2022-09-09T16:54:16;18.00;99.90
13808;DHT22;40769;51.512;5.494;2022-09-09T16:56:44;17.90;99.90
13808;DHT22;40769;51.512;5.494;2022-09-09T16:59:12;17.90;99.90
13808;DHT22;40769;51.512;5.494;2022-09-09T17:01:40;17.80;99.90
13808;DHT22;40769;51.512;5.494;2022-09-09T17:04:08;17.60;99.90
13808;DHT22;40769;51.512;5.494;2022-09-09T17:06:35;17.60;99.90
13808;DHT22;40769;51.512;5.494;2022-09-09T17:09:05;17.60;99.90
13808;DHT22;40769;51.512;5.494;2022-09-09T17:11:32;17.50;99.90
13808;DHT22;40769;51.512;5.494;2022-09-09T17:13:58;17.50;99.90
13808;DHT22;40769;51.512;5.494;2022-09-09T17:16:26;17.50;99.90
13808;DHT22;40769;51.512;5.494;2022-09-09T17:18:56;17.50;99.90
13808;DHT22;40769;51.512;5.494;2022-09-09T17:21:25;17.50;99.90
13808;DHT22;40769;51.512;5.494;2022-09-09T17:23:51;17.50;99.90
13808;DHT22;40769;51.512;5.494;2022-09-09T17:26:18;17.50;99.90
13808;DHT22;40769;51.512;5.494;2022-09-09T17:28:47;17.60;99.90
13808;DHT22;40769;51.512;5.494;2022-09-09T17:31:17;17.50;99.90
13808;DHT22;40769;51.512;5.494;2022-09-09T17:33:46;17.50;99.90
13808;DHT22;40769;51.512;5.494;2022-09-09T17:36:17;17.60;99.90
13808;DHT22;40769;51.512;5.494;2022-09-09T17:38:43;17.50;99.90
13808;DHT22;40769;51.512;5.494;2022-09-09T17:41:16;17.70;99.90
13808;DHT22;40769;51.512;5.494;2022-09-09T17:43:44;17.60;99.90
13808;DHT22;40769;51.512;5.494;2022-09-09T17:46:11;17.60;99.90
13808;DHT22;40769;51.512;5.494;2022-09-09T17:48:38;17.60;99.90
13808;DHT22;40769;51.512;5.494;2022-09-09T17:51:07;17.70;99.90
13808;DHT22;40769;51.512;5.494;2022-09-09T17:53:37;17.70;99.90
13808;DHT22;40769;51.512;5.494;2022-09-09T17:56:05;17.70;99.90
13808;DHT22;40769;51.512;5.494;2022-09-09T17:58:31;17.70;99.90
13808;DHT22;40769;51.512;5.494;2022-09-09T18:01:05;17.70;99.90
13808;DHT22;40769;51.512;5.494;2022-09-09T18:03:34;17.80;99.90
13808;DHT22;40769;51.512;5.494;2022-09-09T18:06:02;17.80;99.90
13808;DHT22;40769;51.512;5.494;2022-09-09T18:08:28;17.70;99.90